createdAt,value
2019-02-08T00:00:23.010Z,21.15
2019-02-08T00:01:32.762Z,23.44
2019-02-08T00:02:42.468Z,21.06
2019-02-08T00:03:52.170Z,21.06
2019-02-08T00:05:02.178Z,22.67
2019-02-08T00:06:11.889Z,21.44
2019-02-08T00:07:21.600Z,19.64
2019-02-08T00:08:31.590Z,17.93
2019-02-08T00:09:41.303Z,18.02
2019-02-08T00:10:51.021Z,20.97
2019-02-08T00:12:00.487Z,23.15
2019-02-08T00:13:10.514Z,23.63
2019-02-08T00:14:20.480Z,24.38
2019-02-08T00:15:29.945Z,20.31
2019-02-08T00:16:39.919Z,22.2
2019-02-08T00:17:49.885Z,21.92
2019-02-08T00:18:59.349Z,23.82
2019-02-08T00:20:09.337Z,23.05
2019-02-08T00:21:19.362Z,22.39
2019-02-08T00:22:29.101Z,21.35
2019-02-08T00:23:39.060Z,17.83
2019-02-08T00:24:49.039Z,22.49
2019-02-08T00:25:59.065Z,24.67
2019-02-08T00:27:08.819Z,20.78
2019-02-08T00:28:18.548Z,22.2
2019-02-08T00:29:28.568Z,22.58
2019-02-08T00:30:38.567Z,20.78
2019-02-08T00:31:48.583Z,23.53
2019-02-08T00:32:58.323Z,22.96
2019-02-08T00:34:08.029Z,23.44
2019-02-08T00:35:17.993Z,22.2
2019-02-08T00:36:27.952Z,23.44
2019-02-08T00:37:37.653Z,21.25
2019-02-08T00:38:47.353Z,22.58
2019-02-08T00:39:56.828Z,20.97
2019-02-08T00:41:06.557Z,21.25
2019-02-08T00:42:16.022Z,23.24
2019-02-08T00:43:25.992Z,20.97
2019-02-08T00:44:35.201Z,22.58
2019-02-08T00:45:44.898Z,24.57
2019-02-08T00:46:54.853Z,21.35
2019-02-08T00:48:04.056Z,21.44
2019-02-08T00:49:14.024Z,22.31
2019-02-08T00:50:23.748Z,23.44
2019-02-08T00:51:33.447Z,23.72
2019-02-08T00:52:42.900Z,22.96
2019-02-08T00:53:52.718Z,22.02
2019-02-08T00:55:01.665Z,23.91
2019-02-08T00:56:11.138Z,24.1
2019-02-08T00:57:20.598Z,23.63
2019-02-08T00:58:29.804Z,23.54
2019-02-08T00:59:39.505Z,24.86
2019-02-08T01:00:49.473Z,24.76
2019-02-08T01:01:58.926Z,23.24
2019-02-08T01:03:08.878Z,22.67
2019-02-08T01:04:18.590Z,22.4
2019-02-08T01:05:28.300Z,22.2
2019-02-08T01:06:38.026Z,22.67
2019-02-08T01:07:47.976Z,19.83
2019-02-08T01:08:57.931Z,20.97
2019-02-08T01:10:07.130Z,22.3
2019-02-08T01:11:16.580Z,20.97
2019-02-08T01:12:26.561Z,24.48
2019-02-08T01:13:36.014Z,23.24
2019-02-08T01:14:45.980Z,21.44
2019-02-08T01:15:55.701Z,22.49
2019-02-08T01:17:05.659Z,21.54
2019-02-08T01:18:15.119Z,21.06
2019-02-08T01:19:24.568Z,21.73
2019-02-08T01:20:34.036Z,21.44
2019-02-08T01:21:43.998Z,22.58
2019-02-08T01:22:53.703Z,22.3
2019-02-08T01:24:03.645Z,22.77
2019-02-08T01:25:13.332Z,23.05
2019-02-08T01:26:23.259Z,24.1
2019-02-08T01:27:32.945Z,25.24
2019-02-08T01:28:42.865Z,25.81
2019-02-08T01:29:52.284Z,24.38
2019-02-08T01:31:01.952Z,24.76
2019-02-08T01:32:11.661Z,24.48
2019-02-08T01:33:21.088Z,24.76
2019-02-08T01:34:30.798Z,25.9
2019-02-08T01:35:40.739Z,24.11
2019-02-08T01:36:50.417Z,23.63
2019-02-08T01:38:00.094Z,23.91
2019-02-08T01:39:09.776Z,24.01
2019-02-08T01:40:19.454Z,24.3
2019-02-08T01:41:29.122Z,25.82
2019-02-08T01:42:38.796Z,25.62
2019-02-08T01:43:48.459Z,25.99
2019-02-08T01:44:58.141Z,26.48
2019-02-08T01:46:07.825Z,24.68
2019-02-08T01:47:17.748Z,23.73
2019-02-08T01:48:27.421Z,27.53
2019-02-08T01:49:37.125Z,28.86
2019-02-08T01:50:46.798Z,27.25
2019-02-08T01:51:56.733Z,28.19
2019-02-08T01:53:06.412Z,27.72
2019-02-08T01:54:16.330Z,28.19
2019-02-08T01:55:26.019Z,29.05
2019-02-08T01:56:35.690Z,29.24
2019-02-08T01:57:45.369Z,29.05
2019-02-08T01:58:54.805Z,29.24
2019-02-08T02:00:04.730Z,27.34
2019-02-08T02:01:15.277Z,28.96
2019-02-08T02:02:24.694Z,29.05
2019-02-08T02:03:34.372Z,25.35
2019-02-08T02:04:44.082Z,25.92
2019-02-08T02:05:54.010Z,30.28
2019-02-08T02:07:03.934Z,29.81
2019-02-08T02:08:13.374Z,31.8
2019-02-08T02:09:23.063Z,29.33
2019-02-08T02:10:32.747Z,31.42
2019-02-08T02:11:42.177Z,31.9
2019-02-08T02:12:52.108Z,31.99
2019-02-08T02:14:01.539Z,32.37
2019-02-08T02:15:11.484Z,31.42
2019-02-08T02:16:21.208Z,32.84
2019-02-08T02:17:30.897Z,31.61
2019-02-08T02:18:40.321Z,28.77
2019-02-08T02:19:50.244Z,30
2019-02-08T02:20:59.915Z,26.39
2019-02-08T02:22:09.115Z,28.19
2019-02-08T02:23:19.042Z,28.77
2019-02-08T02:24:28.964Z,28.57
2019-02-08T02:25:38.889Z,30.09
2019-02-08T02:26:48.312Z,29.9
2019-02-08T02:30:24.336Z,34.46
2019-02-08T02:31:34.306Z,32.75
2019-02-08T02:32:44.233Z,32.84
2019-02-08T02:33:54.172Z,31.9
2019-02-08T02:35:04.138Z,31.23
2019-02-08T02:36:13.941Z,32.84
2019-02-08T02:37:23.392Z,32.18
2019-02-08T02:38:33.092Z,29.43
2019-02-08T02:39:43.028Z,26.39
2019-02-08T02:40:52.227Z,30.28
2019-02-08T02:42:01.944Z,30.66
2019-02-08T02:43:11.911Z,29.14
2019-02-08T02:44:21.858Z,32.28
2019-02-08T02:45:31.795Z,31.13
2019-02-08T02:46:41.732Z,30.66
2019-02-08T02:47:51.182Z,32.37
2019-02-08T02:49:01.107Z,28.77
2019-02-08T02:50:11.066Z,30.28
2019-02-08T02:51:20.508Z,31.23
2019-02-08T02:52:30.442Z,28.29
2019-02-08T02:53:40.131Z,30.28
2019-02-08T02:54:50.078Z,28.77
2019-02-08T02:55:59.787Z,30.94
2019-02-08T02:57:09.711Z,30.85
2019-02-08T02:58:19.138Z,32.75
2019-02-08T02:59:28.845Z,30.94
2019-02-08T03:00:38.524Z,28.67
2019-02-08T03:01:48.466Z,27.25
2019-02-08T03:02:59.174Z,28
2019-02-08T03:04:08.940Z,29.33
2019-02-08T03:05:18.377Z,29.05
2019-02-08T03:06:28.058Z,29.05
2019-02-08T03:07:37.742Z,29.52
2019-02-08T03:08:47.673Z,28.77
2019-02-08T03:09:57.351Z,28.1
2019-02-08T03:11:07.287Z,29.81
2019-02-08T03:12:16.811Z,30.85
2019-02-08T03:13:26.492Z,29.14
2019-02-08T03:14:36.167Z,32.28
2019-02-08T03:15:45.860Z,31.99
2019-02-08T03:16:55.549Z,29.24
2019-02-08T03:18:05.491Z,27.44
2019-02-08T03:19:14.919Z,30.57
2019-02-08T03:20:24.351Z,31.13
2019-02-08T03:21:33.799Z,34.17
2019-02-08T03:22:43.729Z,32.84
2019-02-08T03:23:53.167Z,32.09
2019-02-08T03:25:02.860Z,33.42
2019-02-08T03:26:12.792Z,33.8
2019-02-08T03:27:22.709Z,32.28
2019-02-08T03:28:32.647Z,31.23
2019-02-08T03:29:42.331Z,32.94
2019-02-08T03:30:52.081Z,33.42
2019-02-08T03:32:02.149Z,33.32
2019-02-08T03:33:11.914Z,31.8
2019-02-08T03:34:21.887Z,31.8
2019-02-08T03:35:31.327Z,31.13
2019-02-08T03:36:41.251Z,31.99
2019-02-08T03:37:51.194Z,33.23
2019-02-08T03:39:01.737Z,32.09
2019-02-08T03:40:11.692Z,34.46
2019-02-08T03:41:21.359Z,31.04
2019-02-08T03:42:31.039Z,33.42
2019-02-08T03:43:40.971Z,34.65
2019-02-08T03:44:50.408Z,35.22
2019-02-08T03:46:00.348Z,34.27
2019-02-08T03:47:10.030Z,35.03
2019-02-08T03:48:19.702Z,34.94
2019-02-08T03:49:29.642Z,36.93
2019-02-08T03:50:39.574Z,36.83
2019-02-08T03:51:49.496Z,35.22
2019-02-08T03:52:59.181Z,38.92
2019-02-08T03:54:09.113Z,35.6
2019-02-08T03:55:26.420Z,36.83
2019-02-08T03:56:36.366Z,36.55
2019-02-08T03:57:46.040Z,37.02
2019-02-08T03:58:55.978Z,37.69
2019-02-08T04:00:05.660Z,39.68
2019-02-08T04:01:15.337Z,35.22
2019-02-08T04:02:24.783Z,38.07
2019-02-08T04:03:34.771Z,40.16
2019-02-08T04:04:43.949Z,39.97
2019-02-08T04:05:53.875Z,40.53
2019-02-08T04:07:03.588Z,38.92
2019-02-08T04:08:13.294Z,40.25
2019-02-08T04:09:22.971Z,40.72
2019-02-08T04:10:32.404Z,40.06
2019-02-08T04:11:42.364Z,38.82
2019-02-08T04:12:51.558Z,39.3
2019-02-08T04:14:01.236Z,39.97
2019-02-08T04:15:11.168Z,40.16
2019-02-08T04:16:21.117Z,40.16
2019-02-08T04:17:30.297Z,40.53
2019-02-08T04:18:39.995Z,40.16
2019-02-08T04:19:50.233Z,41.96
2019-02-08T04:20:59.936Z,42.72
2019-02-08T04:22:09.867Z,41.11
2019-02-08T04:23:19.791Z,41.11
2019-02-08T04:24:32.555Z,42.24
2019-02-08T04:25:42.260Z,41.77
2019-02-08T04:26:51.937Z,41.3
2019-02-08T04:28:01.620Z,38.92
2019-02-08T04:29:11.554Z,40.34
2019-02-08T04:30:21.290Z,41.58
2019-02-08T04:31:31.219Z,41.39
2019-02-08T04:32:40.397Z,44.53
2019-02-08T04:33:50.082Z,43.57
2019-02-08T04:35:00.022Z,42.72
2019-02-08T04:36:09.954Z,41.49
2019-02-08T04:37:19.627Z,43.01
2019-02-08T04:38:29.055Z,44.62
2019-02-08T04:39:38.231Z,43.67
2019-02-08T04:40:48.192Z,42.15
2019-02-08T04:41:57.872Z,43.1
2019-02-08T04:43:07.800Z,43.67
2019-02-08T04:44:17.777Z,44.24
2019-02-08T04:45:27.215Z,42.82
2019-02-08T04:46:36.930Z,43.76
2019-02-08T04:47:46.612Z,44.81
2019-02-08T04:48:56.305Z,44.14
2019-02-08T04:50:05.984Z,43.1
2019-02-08T04:51:15.916Z,40.06
2019-02-08T04:52:25.109Z,44.9
2019-02-08T04:53:34.781Z,45.38
2019-02-08T04:54:44.739Z,45
2019-02-08T04:55:54.684Z,46.14
2019-02-08T04:57:04.381Z,46.42
2019-02-08T04:58:14.066Z,45.28
2019-02-08T04:59:24.032Z,45.19
2019-02-08T05:00:33.974Z,43.1
2019-02-08T05:01:43.655Z,45.28
2019-02-08T05:02:53.582Z,45.66
2019-02-08T05:04:03.271Z,44.9
2019-02-08T05:05:12.708Z,43.86
2019-02-08T05:06:22.395Z,44.9
2019-02-08T05:07:31.876Z,44.6
2019-02-08T05:08:41.314Z,44.21
2019-02-08T05:09:51.250Z,43.93
2019-02-08T05:11:00.938Z,44.69
2019-02-08T05:12:10.641Z,42.32
2019-02-08T05:13:20.090Z,43.08
2019-02-08T05:14:30.020Z,43.84
2019-02-08T05:15:39.697Z,42.13
2019-02-08T05:16:49.657Z,43.84
2019-02-08T05:17:59.333Z,42.6
2019-02-08T05:19:09.269Z,43.27
2019-02-08T05:20:18.951Z,43.84
2019-02-08T05:21:28.389Z,43.27
2019-02-08T05:22:38.331Z,43.84
2019-02-08T05:23:47.780Z,42.22
2019-02-08T05:24:57.723Z,43.08
2019-02-08T05:26:07.699Z,43.17
2019-02-08T05:27:17.633Z,42.41
2019-02-08T05:28:27.563Z,43.55
2019-02-08T05:29:37.492Z,43.84
2019-02-08T05:30:47.425Z,45.36
2019-02-08T05:31:57.111Z,45.45
2019-02-08T05:33:07.051Z,45.07
2019-02-08T05:34:16.746Z,42.51
2019-02-08T05:35:26.681Z,42.51
2019-02-08T05:36:36.618Z,43.74
2019-02-08T05:37:46.585Z,45.54
2019-02-08T05:38:56.519Z,43.93
2019-02-08T05:40:05.947Z,43.93
2019-02-08T05:41:15.883Z,42.98
2019-02-08T05:42:25.583Z,44.31
2019-02-08T05:43:35.520Z,43.65
2019-02-08T05:44:45.446Z,45.73
2019-02-08T05:45:54.630Z,48.39
2019-02-08T05:47:04.341Z,48.77
2019-02-08T05:48:13.767Z,47.92
2019-02-08T05:49:23.436Z,48.86
2019-02-08T05:50:32.609Z,49.24
2019-02-08T05:51:42.303Z,48.11
2019-02-08T05:52:52.024Z,49.34
2019-02-08T05:54:01.487Z,47.73
2019-02-08T05:55:11.178Z,48.8
2019-02-08T05:56:20.866Z,48.68
2019-02-08T05:57:31.516Z,50.76
2019-02-08T05:58:41.206Z,50.95
2019-02-08T05:59:50.880Z,50.01
2019-02-08T06:00:59.816Z,50.2
2019-02-08T06:02:09.250Z,51.05
2019-02-08T06:03:18.929Z,51.81
2019-02-08T06:04:28.867Z,50.95
2019-02-08T06:05:38.814Z,50.38
2019-02-08T06:06:48.759Z,50.2
2019-02-08T06:07:58.443Z,51.9
2019-02-08T06:09:08.132Z,52.76
2019-02-08T06:10:18.086Z,51.72
2019-02-08T06:11:27.586Z,50.67
2019-02-08T06:12:38.101Z,51.36
2019-02-08T06:13:48.041Z,52.4
2019-02-08T06:14:57.999Z,52.19
2019-02-08T06:16:07.986Z,51.43
2019-02-08T06:17:17.691Z,50.48
2019-02-08T06:18:27.633Z,51.72
2019-02-08T06:19:37.073Z,52.69
2019-02-08T06:20:46.766Z,54.58
2019-02-08T06:21:56.446Z,53.99
2019-02-08T06:23:06.388Z,52.22
2019-02-08T06:24:16.054Z,51.74
2019-02-08T06:25:25.546Z,52.22
2019-02-08T06:26:35.271Z,51.74
2019-02-08T06:27:44.947Z,52.69
2019-02-08T06:28:54.635Z,53.45
2019-02-08T06:30:04.350Z,52.69
2019-02-08T06:31:14.040Z,54.21
2019-02-08T06:32:23.989Z,53.35
2019-02-08T06:33:33.932Z,53.54
2019-02-08T06:34:43.840Z,53.26
2019-02-08T06:35:53.558Z,51.93
2019-02-08T06:37:03.248Z,54.02
2019-02-08T06:38:12.686Z,53.07
2019-02-08T06:39:21.858Z,53.64
2019-02-08T06:40:31.536Z,54.3
2019-02-08T06:41:41.496Z,52.22
2019-02-08T06:42:51.180Z,52.4
2019-02-08T06:44:01.123Z,51.07
2019-02-08T06:45:10.846Z,54.02
2019-02-08T06:46:20.549Z,51.93
2019-02-08T06:47:30.249Z,52.59
2019-02-08T06:48:39.934Z,51.74
2019-02-08T06:49:49.855Z,50.79
2019-02-08T06:50:59.274Z,50.7
2019-02-08T06:52:09.445Z,53.07
2019-02-08T06:53:19.381Z,50.7
2019-02-08T06:54:28.807Z,49.84
2019-02-08T06:55:37.734Z,50.98
2019-02-08T06:56:47.413Z,51.74
2019-02-08T06:57:57.164Z,51.45
2019-02-08T06:59:06.595Z,49.18
2019-02-08T07:00:16.275Z,50.7
2019-02-08T07:01:25.947Z,50.22
2019-02-08T07:02:35.388Z,49.08
2019-02-08T07:03:45.334Z,49.93
2019-02-08T07:04:55.015Z,51.36
2019-02-08T07:06:04.450Z,51.07
2019-02-08T07:07:14.388Z,49.93
2019-02-08T07:08:23.561Z,49.93
2019-02-08T07:09:33.761Z,50.03
2019-02-08T07:10:43.936Z,49.84
2019-02-08T07:11:53.364Z,45.95
2019-02-08T07:13:03.038Z,46.99
2019-02-08T07:14:12.960Z,47.75
2019-02-08T07:15:22.638Z,48.7
2019-02-08T07:16:32.317Z,48.61
2019-02-08T07:17:42.545Z,49.46
2019-02-08T07:18:52.234Z,46.8
2019-02-08T07:20:02.177Z,47.94
2019-02-08T07:21:11.601Z,47.37
2019-02-08T07:22:21.019Z,45.76
2019-02-08T07:23:30.688Z,45.76
2019-02-08T07:24:40.117Z,45.57
2019-02-08T07:25:49.832Z,44.81
2019-02-08T07:26:59.513Z,45.66
2019-02-08T07:28:09.188Z,44.71
2019-02-08T07:29:18.862Z,41.96
2019-02-08T07:30:28.536Z,43.29
2019-02-08T07:31:38.461Z,43.01
2019-02-08T07:32:47.898Z,41.49
2019-02-08T07:33:58.914Z,41.67
2019-02-08T07:35:08.845Z,38.92
2019-02-08T07:36:18.532Z,36.07
2019-02-08T07:37:28.456Z,37.69
2019-02-08T07:38:37.698Z,36.74
2019-02-08T07:39:47.618Z,35.13
2019-02-08T07:40:56.790Z,32.84
2019-02-08T07:42:06.466Z,30.28
2019-02-08T07:43:16.404Z,28.19
2019-02-08T07:44:26.086Z,25.35
2019-02-08T07:45:35.286Z,23.64
2019-02-08T07:46:44.957Z,21.74
2019-02-08T07:47:54.891Z,20.89
2019-02-08T07:49:04.334Z,19.46
2019-02-08T07:50:14.260Z,18.89
2019-02-08T07:51:24.178Z,18.23
2019-02-08T07:52:33.865Z,17.94
2019-02-08T07:53:43.796Z,16.42
2019-02-08T07:54:53.219Z,15.66
2019-02-08T07:56:03.063Z,15.37
2019-02-08T07:57:12.741Z,14.81
2019-02-08T07:58:22.174Z,14.33
2019-02-08T07:59:31.856Z,14.14
2019-02-08T08:00:41.284Z,14.05
2019-02-08T08:01:50.714Z,13.2
2019-02-08T08:03:00.174Z,13.39
2019-02-08T08:04:09.595Z,13
2019-02-08T08:05:19.018Z,12.81
2019-02-08T08:06:28.694Z,12.62
2019-02-08T08:07:38.412Z,12.72
2019-02-08T08:08:48.367Z,12.15
2019-02-08T08:09:57.548Z,11.2
2019-02-08T08:11:07.475Z,11.49
2019-02-08T08:12:17.169Z,10.82
2019-02-08T08:13:27.268Z,9.78
2019-02-08T08:14:36.708Z,9.3
2019-02-08T08:15:46.393Z,9.97
2019-02-08T08:16:56.071Z,9.49
2019-02-08T08:18:05.805Z,8.73
2019-02-08T08:19:16.034Z,8.35
2019-02-08T08:20:26.023Z,7.4
2019-02-08T08:21:35.698Z,7.12
2019-02-08T08:22:45.369Z,6.93
2019-02-08T08:23:55.312Z,7.03
2019-02-08T08:25:05.003Z,6.55
2019-02-08T08:26:14.687Z,6.45
2019-02-08T08:27:24.392Z,6.17
2019-02-08T08:28:34.069Z,5.12
2019-02-08T08:29:43.742Z,4.74
2019-02-08T08:30:53.688Z,4.65
2019-02-08T08:32:03.657Z,4.84
2019-02-08T08:33:13.604Z,5.12
2019-02-08T08:34:23.288Z,4.74
2019-02-08T08:35:33.236Z,4.27
2019-02-08T08:36:43.159Z,4.46
2019-02-08T08:37:52.336Z,4.27
2019-02-08T08:39:02.274Z,4.46
2019-02-08T08:40:11.979Z,3.99
2019-02-08T08:41:21.913Z,3.89
2019-02-08T08:42:31.585Z,4.08
2019-02-08T08:43:41.509Z,3.89
2019-02-08T08:44:51.199Z,4.27
2019-02-08T08:46:00.372Z,4.65
2019-02-08T08:47:10.316Z,4.65
2019-02-08T08:48:20.245Z,4.46
2019-02-08T08:49:29.673Z,3.61
2019-02-08T08:50:39.591Z,3.03
2019-02-08T08:51:49.282Z,2.66
2019-02-08T08:52:59.218Z,2.75
2019-02-08T08:54:08.642Z,2.18
2019-02-08T08:55:18.317Z,2.09
2019-02-08T08:56:28.243Z,2.47
2019-02-08T08:57:37.928Z,2.18
2019-02-08T08:58:47.606Z,2.28
2019-02-08T08:59:57.278Z,1.99
2019-02-08T09:01:06.703Z,1.04
2019-02-08T09:02:16.638Z,0.66
2019-02-08T09:03:26.579Z,0.57
2019-02-08T09:04:36.259Z,0.38
2019-02-08T09:05:46.946Z,0.28
2019-02-08T09:06:56.885Z,0.19
2019-02-08T09:08:06.315Z,0.47
2019-02-08T09:09:15.739Z,0.38
2019-02-08T09:10:25.177Z,0.66
2019-02-08T09:11:34.881Z,0.85
2019-02-08T09:12:44.810Z,0.76
2019-02-08T09:13:54.241Z,0.95
2019-02-08T09:15:03.956Z,1.23
2019-02-08T09:16:13.889Z,1.61
2019-02-08T09:17:23.327Z,2.28
2019-02-08T09:18:33.258Z,3.41
2019-02-08T09:19:43.202Z,3.13
2019-02-08T09:20:53.135Z,3.7
2019-02-08T09:22:03.062Z,3.99
2019-02-08T09:23:12.496Z,3.41
2019-02-08T09:24:21.931Z,4.46
2019-02-08T09:25:31.616Z,4.36
2019-02-08T09:26:41.285Z,4.65
2019-02-08T09:27:50.761Z,3.99
2019-02-08T09:29:00.508Z,4.46
2019-02-08T09:30:09.985Z,4.74
2019-02-08T09:31:19.657Z,4.27
2019-02-08T09:32:29.085Z,4.55
2019-02-08T09:33:38.761Z,4.27
2019-02-08T09:34:48.475Z,4.27
2019-02-08T09:35:58.403Z,3.13
2019-02-08T09:37:08.094Z,2.66
2019-02-08T09:38:17.767Z,2.28
2019-02-08T09:39:26.949Z,2.47
2019-02-08T09:40:36.389Z,2.09
2019-02-08T09:41:45.817Z,1.7
2019-02-08T09:42:55.757Z,1.04
2019-02-08T09:44:05.457Z,0.47
2019-02-08T09:45:14.812Z,0
2019-02-08T09:46:24.553Z,0
2019-02-08T09:47:34.494Z,0
2019-02-08T09:48:43.936Z,0
2019-02-08T09:49:53.624Z,0
2019-02-08T09:51:03.298Z,0
2019-02-08T09:52:12.975Z,0
2019-02-08T09:53:22.656Z,0
2019-02-08T09:54:32.096Z,0
2019-02-08T09:55:41.795Z,0
2019-02-08T09:56:51.735Z,0
2019-02-08T09:58:01.426Z,0
2019-02-08T09:59:11.358Z,0
2019-02-08T10:00:20.782Z,0
2019-02-08T10:01:30.204Z,0.28
2019-02-08T10:02:39.878Z,1.23
2019-02-08T10:03:49.807Z,1.14
2019-02-08T10:04:59.490Z,1.99
2019-02-08T10:06:09.436Z,2.37
2019-02-08T10:07:19.134Z,3.8
2019-02-08T10:08:28.831Z,4.84
2019-02-08T10:09:38.508Z,5.98
2019-02-08T10:10:47.947Z,5.98
2019-02-08T10:11:57.633Z,7.03
2019-02-08T10:13:07.556Z,7.69
2019-02-08T10:14:17.236Z,8.83
2019-02-08T10:15:27.168Z,8.17
2019-02-08T10:16:36.601Z,8.64
2019-02-08T10:17:46.536Z,8.17
2019-02-08T10:18:56.468Z,7.88
2019-02-08T10:20:05.948Z,8.07
2019-02-08T10:21:15.873Z,7.79
2019-02-08T10:22:25.807Z,6.84
2019-02-08T10:23:35.230Z,6.36
2019-02-08T10:24:44.970Z,6.46
2019-02-08T10:25:54.148Z,6.65
2019-02-08T10:27:10.616Z,5.98
2019-02-08T10:28:20.312Z,4.94
2019-02-08T10:29:30.442Z,4.65
2019-02-08T10:30:40.366Z,4.46
2019-02-08T10:31:49.794Z,5.32
2019-02-08T10:32:59.479Z,6.17
2019-02-08T10:34:08.917Z,5.41
2019-02-08T10:35:18.093Z,5.69
2019-02-08T10:36:28.018Z,5.41
2019-02-08T10:37:37.953Z,5.6
2019-02-08T10:38:47.700Z,5.41
2019-02-08T10:39:57.836Z,3.99
2019-02-08T10:41:07.834Z,3.42
2019-02-08T10:42:17.764Z,2.66
2019-02-08T10:43:27.699Z,2.09
2019-02-08T10:44:37.630Z,1.71
2019-02-08T10:45:46.825Z,1.9
2019-02-08T10:46:56.508Z,2.75
2019-02-08T10:48:06.190Z,3.51
2019-02-08T10:49:15.912Z,3.8
2019-02-08T10:50:25.357Z,4.36
2019-02-08T10:51:34.786Z,5.41
2019-02-08T10:52:44.478Z,5.98
2019-02-08T10:53:55.499Z,7.5
2019-02-08T10:55:05.247Z,6.93
2019-02-08T10:56:17.632Z,9.69
2019-02-08T10:57:27.620Z,11.21
2019-02-08T10:58:37.056Z,11.21
2019-02-08T10:59:46.995Z,11.02
2019-02-08T11:00:56.931Z,10.16
2019-02-08T11:02:06.866Z,10.73
2019-02-08T11:03:16.040Z,11.87
2019-02-08T11:04:25.712Z,12.82
2019-02-08T11:05:35.654Z,11.96
2019-02-08T11:06:45.082Z,13.01
2019-02-08T11:07:54.768Z,13.2
2019-02-08T11:09:04.710Z,12.82
2019-02-08T11:10:14.389Z,14.62
2019-02-08T11:11:25.463Z,15.86
2019-02-08T11:12:35.395Z,15.77
2019-02-08T11:13:45.088Z,15.29
2019-02-08T11:14:54.783Z,15.95
2019-02-08T11:16:04.217Z,17.19
2019-02-08T11:17:14.151Z,17.66
2019-02-08T11:18:23.583Z,19.18
2019-02-08T11:19:33.558Z,19.76
2019-02-08T11:20:42.743Z,19.95
2019-02-08T11:21:52.447Z,18.33
2019-02-08T11:23:01.905Z,18.33
2019-02-08T11:24:11.586Z,19.95
2019-02-08T11:25:20.791Z,22.24
2019-02-08T11:26:30.470Z,22.9
2019-02-08T11:27:40.157Z,23.46
2019-02-08T11:28:49.856Z,23.36
2019-02-08T11:29:59.784Z,23.75
2019-02-08T11:31:09.461Z,24.61
2019-02-08T11:32:19.131Z,25.09
2019-02-08T11:33:45.108Z,25.85
2019-02-08T11:34:55.038Z,25.94
2019-02-08T11:36:04.734Z,28.51
2019-02-08T11:37:14.663Z,28.22
2019-02-08T11:38:24.086Z,28.51
2019-02-08T11:39:33.524Z,28.6
2019-02-08T11:40:43.192Z,29.08
2019-02-08T11:41:53.124Z,28.13
2019-02-08T11:43:02.301Z,27.37
2019-02-08T11:44:11.983Z,27.65
2019-02-08T11:45:21.164Z,28.6
2019-02-08T11:46:31.097Z,29.17
2019-02-08T11:47:40.527Z,28.22
2019-02-08T11:48:50.219Z,29.64
2019-02-08T11:49:59.664Z,29.74
2019-02-08T11:51:09.343Z,30.31
2019-02-08T11:52:20.058Z,31.93
2019-02-08T11:53:29.730Z,30.88
2019-02-08T11:54:38.937Z,30.03
2019-02-08T11:55:48.386Z,31.07
2019-02-08T11:56:57.841Z,32.4
2019-02-08T11:58:07.294Z,33.17
2019-02-08T11:59:16.746Z,33.54
2019-02-08T12:00:26.427Z,34.59
2019-02-08T12:01:36.124Z,33.54
2019-02-08T12:02:45.551Z,35.83
2019-02-08T12:03:54.734Z,36.96
2019-02-08T12:05:03.913Z,36.77
2019-02-08T12:06:13.836Z,38.01
2019-02-08T12:07:23.772Z,38.96
2019-02-08T12:08:33.199Z,39.91
2019-02-08T12:09:43.157Z,40.2
2019-02-08T12:10:52.860Z,39.91
2019-02-08T12:12:02.796Z,38.29
2019-02-08T12:13:12.233Z,40.01
2019-02-08T12:14:21.710Z,42.6
2019-02-08T12:15:32.372Z,43.45
2019-02-08T12:16:41.549Z,44.87
2019-02-08T12:17:51.474Z,45.54
2019-02-08T12:19:01.158Z,47.06
2019-02-08T12:20:10.104Z,46.59
2019-02-08T12:21:20.034Z,47.34
2019-02-08T12:22:29.960Z,47.44
2019-02-08T12:23:39.679Z,47.63
2019-02-08T12:24:49.134Z,46.49
2019-02-08T12:26:00.210Z,45.35
2019-02-08T12:27:09.902Z,46.49
2019-02-08T12:28:19.336Z,46.97
2019-02-08T12:32:14.212Z,50.87
2019-02-08T12:33:24.144Z,52.48
2019-02-08T12:34:33.883Z,50.77
2019-02-08T12:35:43.581Z,49.44
2019-02-08T12:36:53.258Z,52.39
2019-02-08T12:38:03.190Z,53.53
2019-02-08T12:39:12.871Z,54.41
2019-02-08T12:40:22.812Z,54.98
2019-02-08T12:41:32.744Z,55.55
2019-02-08T12:42:42.427Z,52.7
2019-02-08T12:43:52.131Z,54.98
2019-02-08T12:45:01.828Z,54.41
2019-02-08T12:46:11.514Z,56.6
2019-02-08T12:47:21.209Z,55.46
2019-02-08T12:48:30.637Z,57.45
2019-02-08T12:49:41.766Z,57.84
2019-02-08T12:50:50.945Z,56.6
2019-02-08T12:52:00.620Z,57.93
2019-02-08T12:53:10.561Z,58.5
2019-02-08T12:54:21.441Z,58.22
2019-02-08T12:55:31.230Z,61.35
2019-02-08T12:56:48.002Z,60.6
2019-02-08T12:57:57.445Z,61.35
2019-02-08T12:59:06.644Z,60.88
2019-02-08T13:00:17.084Z,60.31
2019-02-08T13:01:26.532Z,60.88
2019-02-08T13:02:42.903Z,61.45
2019-02-08T13:03:52.837Z,62.21
2019-02-08T13:05:02.772Z,62.59
2019-02-08T13:06:12.200Z,64.31
2019-02-08T13:07:21.891Z,63.64
2019-02-08T13:08:31.580Z,63.54
2019-02-08T13:09:41.026Z,63.92
2019-02-08T13:10:50.971Z,62.97
2019-02-08T13:12:00.405Z,64.21
2019-02-08T13:13:09.581Z,64.5
2019-02-08T13:14:19.264Z,64.59
2019-02-08T13:15:28.946Z,64.31
2019-02-08T13:16:38.878Z,65.83
2019-02-08T13:17:48.557Z,65.92
2019-02-08T13:18:57.993Z,65.92
2019-02-08T13:20:07.438Z,66.39
2019-02-08T13:21:16.866Z,66.3
2019-02-08T13:22:26.309Z,66.49
2019-02-08T13:23:35.483Z,67.35
2019-02-08T13:24:45.416Z,67.25
2019-02-08T13:25:55.367Z,66.68
2019-02-08T13:27:05.313Z,67.35
2019-02-08T13:28:15.281Z,67.44
2019-02-08T13:29:25.015Z,68.05
2019-02-08T13:30:34.736Z,68.81
2019-02-08T13:31:44.668Z,69.1
2019-02-08T13:32:54.396Z,69.1
2019-02-08T13:34:04.078Z,68.05
2019-02-08T13:35:13.511Z,68.81
2019-02-08T13:36:23.200Z,68.52
2019-02-08T13:37:33.124Z,68.9
2019-02-08T13:38:42.821Z,67.67
2019-02-08T13:39:52.015Z,68.71
2019-02-08T13:41:01.954Z,68.71
2019-02-08T13:42:11.648Z,66.81
2019-02-08T13:43:21.337Z,70.14
2019-02-08T13:44:30.518Z,68.62
2019-02-08T13:45:39.945Z,69.48
2019-02-08T13:46:49.373Z,69.48
2019-02-08T13:47:59.312Z,70.52
2019-02-08T13:49:08.990Z,70.81
2019-02-08T13:50:18.686Z,69
2019-02-08T13:51:27.872Z,71.09
2019-02-08T13:52:37.575Z,70.62
2019-02-08T13:53:47.494Z,70.52
2019-02-08T13:54:56.940Z,70.05
2019-02-08T13:56:06.638Z,71.28
2019-02-08T13:57:16.567Z,70.9
2019-02-08T13:58:26.246Z,70.81
2019-02-08T13:59:35.949Z,70.72
2019-02-08T14:00:45.395Z,71.63
2019-02-08T14:01:55.316Z,71.06
2019-02-08T14:03:05.262Z,70.77
2019-02-08T14:04:14.236Z,70.2
2019-02-08T14:05:23.672Z,70.1
2019-02-08T14:06:33.394Z,69.44
2019-02-08T14:07:43.369Z,69.35
2019-02-08T14:08:53.057Z,70.68
2019-02-08T14:10:02.484Z,70.2
2019-02-08T14:11:12.425Z,70.2
2019-02-08T14:12:22.136Z,69.92
2019-02-08T14:13:31.329Z,69.54
2019-02-08T14:14:47.443Z,69.25
2019-02-08T14:15:57.387Z,70.2
2019-02-08T14:17:07.312Z,70.58
2019-02-08T14:18:17.302Z,70.68
2019-02-08T14:19:27.010Z,71.25
2019-02-08T14:20:36.694Z,71.15
2019-02-08T14:21:46.131Z,71.06
2019-02-08T14:22:55.803Z,70.58
2019-02-08T14:24:05.497Z,71.53
2019-02-08T14:25:15.448Z,71.72
2019-02-08T14:26:25.148Z,71.34
2019-02-08T14:27:34.591Z,71.82
2019-02-08T14:28:44.029Z,71.72
2019-02-08T14:29:53.705Z,71.53
2019-02-08T14:31:03.153Z,71.15
2019-02-08T14:32:13.294Z,72.3
2019-02-08T14:33:22.748Z,71.91
2019-02-08T14:34:32.448Z,71.53
2019-02-08T14:35:48.613Z,70.58
2019-02-08T14:36:58.906Z,71.25
2019-02-08T14:38:08.592Z,71.34
2019-02-08T14:39:17.778Z,70.58
2019-02-08T14:40:27.203Z,71.44
2019-02-08T14:41:36.629Z,71.06
2019-02-08T14:42:46.066Z,70.49
2019-02-08T14:43:55.497Z,71.06
2019-02-08T14:45:04.678Z,70.77
2019-02-08T14:46:14.768Z,70.3
2019-02-08T14:47:23.950Z,70.49
2019-02-08T14:48:33.878Z,70.77
2019-02-08T14:49:43.812Z,70.1
2019-02-08T14:50:53.756Z,70.2
2019-02-08T14:52:03.685Z,70.3
2019-02-08T14:53:13.631Z,69.73
2019-02-08T14:54:23.317Z,69.82
2019-02-08T14:55:33.017Z,70.2
2019-02-08T14:56:42.949Z,69.82
2019-02-08T14:57:52.885Z,68.87
2019-02-08T14:59:02.715Z,68.96
2019-02-08T15:00:12.180Z,68.96
2019-02-08T15:01:21.869Z,69.63
2019-02-08T15:02:31.796Z,70.2
2019-02-08T15:03:42.710Z,70.58
2019-02-08T15:04:51.903Z,69.63
2019-02-08T15:06:01.112Z,69.25
2019-02-08T15:07:11.911Z,69.92
2019-02-08T15:08:21.615Z,69.73
2019-02-08T15:09:30.819Z,69.63
2019-02-08T15:10:40.760Z,70.49
2019-02-08T15:11:50.211Z,69.92
2019-02-08T15:13:00.423Z,69.44
2019-02-08T15:14:10.466Z,69.82